createdAt,value
2023-01-22T00:01:40.514Z,20.20
2023-01-22T00:04:13.515Z,20.30
2023-01-22T00:06:44.160Z,20.30
2023-01-22T00:09:14.803Z,20.40
2023-01-22T00:11:45.773Z,20.40
2023-01-22T00:14:16.540Z,20.40
2023-01-22T00:16:47.822Z,20.40
2023-01-22T00:19:18.786Z,20.30
2023-01-22T00:21:50.130Z,20.40
2023-01-22T00:24:20.894Z,20.40
2023-01-22T00:26:51.770Z,20.40
2023-01-22T00:29:22.618Z,20.30
2023-01-22T00:31:55.831Z,20.30
2023-01-22T00:34:27.643Z,20.30
2023-01-22T00:36:58.933Z,20.30
2023-01-22T00:39:29.747Z,20.40
2023-01-22T00:42:00.935Z,20.40
2023-01-22T00:44:32.696Z,20.40
2023-01-22T00:47:03.233Z,20.40
2023-01-22T00:49:33.489Z,20.50
2023-01-22T00:52:04.357Z,20.50
2023-01-22T00:54:34.656Z,20.50
2023-01-22T00:57:04.993Z,20.50
2023-01-22T00:59:36.175Z,20.50
2023-01-22T01:02:08.816Z,20.60
2023-01-22T01:04:40.410Z,20.60
2023-01-22T01:07:11.354Z,20.70
2023-01-22T01:09:41.720Z,20.80
2023-01-22T01:12:12.263Z,20.80
2023-01-22T01:14:42.602Z,20.70
2023-01-22T01:17:13.014Z,20.60
2023-01-22T01:19:43.349Z,20.60
2023-01-22T01:22:14.166Z,20.60
2023-01-22T01:24:44.497Z,20.60
2023-01-22T01:27:15.211Z,20.60
2023-01-22T01:29:46.058Z,20.70
2023-01-22T01:32:16.511Z,20.80
2023-01-22T01:34:51.696Z,20.90
2023-01-22T01:37:22.087Z,21.00
2023-01-22T01:39:54.245Z,21.10
2023-01-22T01:42:38.798Z,21.20
2023-01-22T01:45:27.780Z,21.30
2023-01-22T01:48:30.921Z,21.30
2023-01-22T01:51:07.646Z,21.40
2023-01-22T01:53:38.811Z,21.40
2023-01-22T01:56:16.240Z,21.40
2023-01-22T01:58:49.094Z,21.40
2023-01-22T02:01:21.450Z,21.50
2023-01-22T02:03:53.130Z,21.50
2023-01-22T02:06:23.827Z,21.50
2023-01-22T02:08:56.946Z,21.50
2023-01-22T02:11:28.623Z,21.60
2023-01-22T02:14:12.241Z,21.60
2023-01-22T02:16:43.346Z,21.60
2023-01-22T02:19:14.548Z,21.70
2023-01-22T02:21:47.205Z,21.60
2023-01-22T02:24:19.740Z,21.70
2023-01-22T02:26:50.596Z,21.80
2023-01-22T02:29:21.717Z,21.80
2023-01-22T02:31:52.516Z,21.90
2023-01-22T02:34:26.644Z,21.90
2023-01-22T02:36:59.207Z,21.90
2023-01-22T02:39:30.030Z,21.90
2023-01-22T02:42:01.072Z,21.90
2023-01-22T02:44:31.820Z,22.00
2023-01-22T02:47:02.924Z,22.10
2023-01-22T02:49:34.261Z,22.00
2023-01-22T02:52:09.641Z,21.90
2023-01-22T02:54:40.683Z,21.90
2023-01-22T02:57:11.460Z,21.90
2023-01-22T02:59:41.724Z,21.90
2023-01-22T03:02:12.359Z,21.90
2023-01-22T03:04:43.069Z,21.80
2023-01-22T03:07:13.976Z,21.80
2023-01-22T03:09:45.034Z,21.70
2023-01-22T03:12:16.173Z,21.60
2023-01-22T03:15:05.319Z,21.50
2023-01-22T03:17:57.539Z,21.40
2023-01-22T03:20:46.052Z,21.20
2023-01-22T03:23:20.169Z,21.10
2023-01-22T03:25:50.838Z,21.20
2023-01-22T03:28:21.490Z,21.20
2023-01-22T03:30:52.603Z,21.30
2023-01-22T03:33:24.431Z,21.40
2023-01-22T03:35:55.099Z,21.50
2023-01-22T03:38:31.892Z,21.70
2023-01-22T03:41:20.302Z,21.70
2023-01-22T03:43:51.108Z,21.70
2023-01-22T03:46:23.185Z,21.50
2023-01-22T03:48:55.354Z,21.50
2023-01-22T03:51:28.096Z,21.40
2023-01-22T03:53:59.037Z,21.40
2023-01-22T03:56:31.695Z,21.20
2023-01-22T03:59:02.504Z,21.10
2023-01-22T04:01:33.624Z,20.90
2023-01-22T04:04:04.956Z,20.80
2023-01-22T04:06:35.764Z,20.70
2023-01-22T04:09:06.833Z,20.50
2023-01-22T04:11:37.783Z,20.50
2023-01-22T04:14:08.991Z,20.50
2023-01-22T04:16:40.178Z,20.50
2023-01-22T04:19:12.304Z,20.30
2023-01-22T04:21:43.029Z,20.30
2023-01-22T04:24:15.012Z,20.20
2023-01-22T04:29:28.605Z,19.80
2023-01-22T04:32:00.660Z,19.70
2023-01-22T04:34:31.313Z,19.40
2023-01-22T04:37:02.971Z,19.20
2023-01-22T04:39:33.683Z,19.10
2023-01-22T04:42:04.551Z,19.00
2023-01-22T04:44:36.792Z,19.00
2023-01-22T04:47:08.079Z,18.90
2023-01-22T04:49:38.737Z,18.90
2023-01-22T04:52:11.553Z,18.80
2023-01-22T04:54:43.482Z,18.80
2023-01-22T04:57:15.846Z,18.70
2023-01-22T04:59:46.547Z,18.60
2023-01-22T05:02:19.165Z,18.60
2023-01-22T05:04:49.979Z,18.60
2023-01-22T05:07:21.025Z,18.50
2023-01-22T05:09:54.521Z,18.60
2023-01-22T05:12:25.387Z,18.50
2023-01-22T05:14:56.458Z,18.50
2023-01-22T05:17:28.340Z,18.50
2023-01-22T05:19:58.968Z,18.60
2023-01-22T05:22:31.162Z,18.50
2023-01-22T05:25:03.146Z,18.50
2023-01-22T05:27:34.051Z,18.40
2023-01-22T05:30:06.543Z,18.50
2023-01-22T05:32:37.399Z,18.50
2023-01-22T05:35:09.247Z,18.50
2023-01-22T05:37:41.118Z,18.50
2023-01-22T05:40:12.695Z,18.50
2023-01-22T05:42:43.619Z,18.50
2023-01-22T05:45:14.569Z,18.50
2023-01-22T05:47:45.037Z,18.30
2023-01-22T05:50:15.701Z,18.20
2023-01-22T05:52:47.553Z,18.10
2023-01-22T05:55:18.087Z,18.00
2023-01-22T05:57:53.558Z,17.90
2023-01-22T06:00:24.051Z,17.90
2023-01-22T06:03:04.108Z,17.90
2023-01-22T06:05:34.428Z,17.90
2023-01-22T06:08:07.696Z,17.90
2023-01-22T06:10:40.733Z,17.90
2023-01-22T06:13:12.845Z,17.90
2023-01-22T06:15:45.116Z,17.90
2023-01-22T06:18:15.942Z,17.90
2023-01-22T06:20:46.361Z,17.90
2023-01-22T06:23:18.455Z,17.90
2023-01-22T06:25:55.373Z,17.90
2023-01-22T06:28:26.257Z,17.90
2023-01-22T06:31:00.038Z,17.80
2023-01-22T06:33:30.431Z,17.80
2023-01-22T06:36:02.194Z,17.70
2023-01-22T06:38:33.569Z,17.60
2023-01-22T06:41:04.748Z,17.60
2023-01-22T06:43:36.256Z,17.60
2023-01-22T06:46:09.681Z,17.50
2023-01-22T06:48:42.332Z,17.50
2023-01-22T06:51:14.761Z,17.50
2023-01-22T06:53:45.109Z,17.50
2023-01-22T06:56:15.399Z,17.50
2023-01-22T06:58:45.850Z,17.50
2023-01-22T07:01:16.200Z,17.50
2023-01-22T07:03:53.645Z,17.50
2023-01-22T07:06:24.003Z,17.50
2023-01-22T07:08:56.239Z,17.50
2023-01-22T07:11:29.966Z,17.50
2023-01-22T07:14:00.998Z,17.50
2023-01-22T07:16:35.453Z,17.40
2023-01-22T07:19:06.483Z,17.40
2023-01-22T07:21:38.379Z,17.40
2023-01-22T07:24:13.938Z,17.40
2023-01-22T07:26:45.702Z,17.40
2023-01-22T07:29:16.813Z,17.30
2023-01-22T07:31:49.867Z,17.40
2023-01-22T07:34:25.572Z,17.40
2023-01-22T07:36:56.645Z,17.30
2023-01-22T07:39:27.377Z,17.30
2023-01-22T07:42:03.109Z,17.30
2023-01-22T07:44:34.930Z,17.20
2023-01-22T07:47:06.884Z,17.10
2023-01-22T07:49:38.193Z,17.10
2023-01-22T07:52:09.449Z,17.10
2023-01-22T07:54:42.018Z,17.10
2023-01-22T07:57:17.425Z,17.10
2023-01-22T07:59:49.528Z,17.00
2023-01-22T08:02:20.780Z,17.00
2023-01-22T08:04:51.460Z,17.00
2023-01-22T08:07:27.835Z,17.00
2023-01-22T08:10:00.758Z,17.00
2023-01-22T08:12:33.630Z,16.90
2023-01-22T08:15:04.480Z,16.80
2023-01-22T08:17:36.854Z,16.80
2023-01-22T08:20:10.786Z,16.80
2023-01-22T08:22:42.192Z,16.80
2023-01-22T08:25:14.711Z,16.70
2023-01-22T08:27:45.596Z,16.60
2023-01-22T08:30:19.069Z,16.60
2023-01-22T08:32:51.301Z,16.50
2023-01-22T08:35:24.598Z,16.50
2023-01-22T08:37:55.408Z,16.50
2023-01-22T08:40:26.904Z,16.50
2023-01-22T08:42:58.604Z,16.50
2023-01-22T08:45:31.814Z,16.50
2023-01-22T08:48:02.914Z,16.50
2023-01-22T08:50:34.117Z,16.50
2023-01-22T08:53:05.729Z,16.60
2023-01-22T08:55:38.555Z,16.50
2023-01-22T08:58:10.049Z,16.50
2023-01-22T09:00:44.908Z,16.50
2023-01-22T09:03:17.261Z,16.50
2023-01-22T09:05:49.110Z,16.50
2023-01-22T09:08:20.516Z,16.50
2023-01-22T09:10:51.569Z,16.40
2023-01-22T09:13:24.196Z,16.40
2023-01-22T09:16:00.015Z,16.40
2023-01-22T09:18:32.713Z,16.40
2023-01-22T09:21:03.423Z,16.40
2023-01-22T09:23:37.824Z,16.40
2023-01-22T09:26:08.710Z,16.40
2023-01-22T09:28:39.804Z,16.30
2023-01-22T09:31:11.502Z,16.30
2023-01-22T09:33:42.452Z,16.30
2023-01-22T09:36:16.245Z,16.30
2023-01-22T09:38:47.455Z,16.20
2023-01-22T09:41:36.431Z,16.30
2023-01-22T09:44:14.611Z,16.20
2023-01-22T09:47:05.194Z,16.20
2023-01-22T09:49:52.963Z,16.20
2023-01-22T09:52:27.418Z,16.10
2023-01-22T09:54:59.259Z,16.10
2023-01-22T09:57:32.168Z,16.10
2023-01-22T10:00:03.194Z,16.00
2023-01-22T10:02:52.048Z,16.00
2023-01-22T10:05:33.942Z,16.00
2023-01-22T10:08:30.901Z,15.90
2023-01-22T10:11:06.993Z,15.90
2023-01-22T10:13:39.961Z,15.90
2023-01-22T10:16:14.397Z,15.90
2023-01-22T10:19:15.969Z,15.80
2023-01-22T10:21:52.932Z,15.80
2023-01-22T10:24:23.628Z,15.90
2023-01-22T10:27:01.076Z,15.90
2023-01-22T10:29:39.307Z,15.80
2023-01-22T10:32:29.827Z,15.90
2023-01-22T10:35:03.878Z,15.90
2023-01-22T10:37:48.913Z,15.80
2023-01-22T10:40:35.957Z,15.90
2023-01-22T10:43:14.584Z,15.80
2023-01-22T10:46:02.000Z,15.80
2023-01-22T10:48:36.987Z,15.80
2023-01-22T10:51:24.229Z,15.80
2023-01-22T10:53:59.115Z,15.80
2023-01-22T10:56:40.403Z,15.80
2023-01-22T10:59:33.617Z,15.90
2023-01-22T11:02:14.098Z,15.80
2023-01-22T11:04:47.689Z,15.80
2023-01-22T11:07:21.126Z,15.80
2023-01-22T11:09:55.908Z,15.80
2023-01-22T11:12:53.339Z,15.80
2023-01-22T11:15:45.826Z,15.80
2023-01-22T11:18:35.288Z,15.80
2023-01-22T11:21:22.391Z,15.80
2023-01-22T11:24:08.081Z,15.80
2023-01-22T11:26:56.882Z,15.80
2023-01-22T11:29:44.043Z,15.80
2023-01-22T11:32:51.215Z,15.80
2023-01-22T11:35:29.635Z,15.80
2023-01-22T11:38:33.458Z,15.80
2023-01-22T11:41:23.709Z,15.80
2023-01-22T11:44:49.725Z,15.80
2023-01-22T11:47:23.015Z,15.80
2023-01-22T11:50:34.747Z,15.80
2023-01-22T11:53:05.634Z,15.80
2023-01-22T11:56:14.082Z,15.70
2023-01-22T11:59:01.535Z,15.70
2023-01-22T12:01:34.833Z,15.70
2023-01-22T12:04:29.682Z,15.60
2023-01-22T12:07:54.088Z,15.60
2023-01-22T12:10:56.685Z,15.60
2023-01-22T12:13:28.880Z,15.50
2023-01-22T12:16:08.701Z,15.50
2023-01-22T12:18:55.769Z,15.40
2023-01-22T12:21:44.865Z,15.40
2023-01-22T12:24:45.692Z,15.40
2023-01-22T12:27:49.466Z,15.40
2023-01-22T12:30:38.412Z,15.40
2023-01-22T12:33:09.974Z,15.40
2023-01-22T12:35:41.615Z,15.40
2023-01-22T12:38:23.638Z,15.30
2023-01-22T12:41:28.807Z,15.30
2023-01-22T12:44:23.844Z,15.20
2023-01-22T12:47:42.990Z,15.20
2023-01-22T12:50:25.403Z,15.20
2023-01-22T12:53:21.960Z,15.20
2023-01-22T12:56:05.579Z,15.20
2023-01-22T12:58:40.466Z,15.20
2023-01-22T13:01:14.396Z,15.10
2023-01-22T13:03:45.648Z,15.10
2023-01-22T13:06:32.361Z,15.10
2023-01-22T13:09:04.921Z,15.10
2023-01-22T13:11:37.106Z,15.10
2023-01-22T13:14:29.332Z,15.10
2023-01-22T13:17:08.114Z,15.20
2023-01-22T13:19:51.965Z,15.20
2023-01-22T13:22:30.661Z,15.10
2023-01-22T13:25:03.330Z,15.10
2023-01-22T13:27:39.441Z,15.20
2023-01-22T13:30:16.174Z,15.20
2023-01-22T13:32:47.002Z,15.20
2023-01-22T13:35:20.171Z,15.20
2023-01-22T13:37:54.401Z,15.20
2023-01-22T13:40:42.772Z,15.20
2023-01-22T13:43:21.326Z,15.30
2023-01-22T13:45:57.788Z,15.20
2023-01-22T13:48:31.627Z,15.20
2023-01-22T13:51:14.088Z,15.30
2023-01-22T13:53:53.802Z,15.30
2023-01-22T13:56:29.705Z,15.30
2023-01-22T13:59:21.319Z,15.20
2023-01-22T14:01:52.429Z,15.20
2023-01-22T14:04:28.821Z,15.20
2023-01-22T14:06:59.956Z,15.20
2023-01-22T14:09:39.047Z,15.20
2023-01-22T14:12:19.343Z,15.20
2023-01-22T14:14:50.899Z,15.10
2023-01-22T14:17:36.385Z,15.10
2023-01-22T14:20:07.245Z,15.10
2023-01-22T14:22:39.540Z,15.10
2023-01-22T14:25:11.115Z,15.00
2023-01-22T14:27:49.177Z,14.90
2023-01-22T14:30:24.595Z,14.90
2023-01-22T14:32:56.401Z,14.80
2023-01-22T14:35:28.959Z,14.80
2023-01-22T14:38:00.001Z,14.70
2023-01-22T14:40:32.362Z,14.60
2023-01-22T14:43:03.926Z,14.60
2023-01-22T14:45:35.829Z,14.60
2023-01-22T14:48:07.145Z,14.50
2023-01-22T14:50:37.786Z,14.50
2023-01-22T14:53:08.515Z,14.50
2023-01-22T14:55:40.382Z,14.50
2023-01-22T14:58:12.607Z,14.50
2023-01-22T15:00:43.322Z,14.50
2023-01-22T15:03:14.093Z,14.50
2023-01-22T15:05:46.675Z,14.50
2023-01-22T15:08:28.505Z,14.50
2023-01-22T15:11:01.810Z,14.40
2023-01-22T15:13:32.606Z,14.40
2023-01-22T15:16:11.532Z,14.40
2023-01-22T15:18:43.759Z,14.30
2023-01-22T15:21:14.508Z,14.30
2023-01-22T15:23:45.425Z,14.30
2023-01-22T15:26:38.659Z,14.20
2023-01-22T15:29:13.365Z,14.30
2023-01-22T15:31:46.159Z,14.30
2023-01-22T15:34:16.967Z,14.30
2023-01-22T15:36:48.282Z,14.30
2023-01-22T15:39:19.804Z,14.30
2023-01-22T15:41:50.533Z,14.30
2023-01-22T15:44:21.961Z,14.40
2023-01-22T15:46:52.888Z,14.40
2023-01-22T15:49:23.699Z,14.50
2023-01-22T15:51:54.920Z,14.50
2023-01-22T15:54:25.920Z,14.50
2023-01-22T15:57:00.855Z,14.60
2023-01-22T15:59:32.436Z,14.60
2023-01-22T16:02:03.079Z,14.60
2023-01-22T16:04:36.920Z,14.60
2023-01-22T16:07:08.837Z,14.60
2023-01-22T16:09:41.955Z,14.60
2023-01-22T16:12:14.093Z,14.60
2023-01-22T16:14:44.837Z,14.60
2023-01-22T16:17:16.885Z,14.60
2023-01-22T16:19:47.659Z,14.60
2023-01-22T16:22:18.300Z,14.60
2023-01-22T16:24:49.161Z,14.60
2023-01-22T16:27:20.024Z,14.60
2023-01-22T16:29:51.541Z,14.60
2023-01-22T16:32:23.069Z,14.60
2023-01-22T16:34:57.229Z,14.60
2023-01-22T16:37:29.157Z,14.60
2023-01-22T16:40:00.066Z,14.60
2023-01-22T16:42:31.960Z,14.60
2023-01-22T16:45:03.770Z,14.50
2023-01-22T16:47:35.148Z,14.50
2023-01-22T16:50:05.883Z,14.50
2023-01-22T16:52:38.048Z,14.50
2023-01-22T16:55:10.129Z,14.40
2023-01-22T16:57:41.122Z,14.40
2023-01-22T17:00:13.443Z,14.40
2023-01-22T17:02:45.366Z,14.40
2023-01-22T17:05:15.726Z,14.30
2023-01-22T17:07:46.638Z,14.30
2023-01-22T17:10:18.829Z,14.30
2023-01-22T17:12:49.607Z,14.20
2023-01-22T17:15:21.742Z,14.20
2023-01-22T17:17:56.194Z,14.20
2023-01-22T17:20:27.502Z,14.20
2023-01-22T17:22:58.437Z,14.10
2023-01-22T17:25:30.846Z,14.10
2023-01-22T17:28:02.495Z,14.20
2023-01-22T17:30:33.707Z,14.10
2023-01-22T17:33:04.664Z,14.20
2023-01-22T17:35:35.572Z,14.20
2023-01-22T17:38:07.163Z,14.20
2023-01-22T17:40:41.503Z,14.20
2023-01-22T17:43:12.182Z,14.20
2023-01-22T17:45:43.728Z,14.30
2023-01-22T17:48:14.591Z,14.30
2023-01-22T17:50:46.446Z,14.30
2023-01-22T17:53:17.158Z,14.30
2023-01-22T17:55:47.864Z,14.30
2023-01-22T17:58:19.660Z,14.30
2023-01-22T18:00:50.092Z,14.40
2023-01-22T18:03:20.852Z,14.40
2023-01-22T18:05:56.833Z,14.40
2023-01-22T18:08:35.087Z,14.40
2023-01-22T18:11:13.523Z,14.50
2023-01-22T18:13:44.829Z,14.50
2023-01-22T18:16:18.363Z,14.50
2023-01-22T18:18:50.138Z,14.60
2023-01-22T18:21:24.087Z,14.60
2023-01-22T18:23:54.578Z,14.60
2023-01-22T18:26:27.984Z,14.60
2023-01-22T18:29:00.747Z,14.60
2023-01-22T18:31:32.057Z,14.60
2023-01-22T18:34:05.205Z,14.60
2023-01-22T18:36:39.461Z,14.60
2023-01-22T18:39:17.041Z,14.60
2023-01-22T18:41:49.952Z,14.60
2023-01-22T18:44:24.746Z,14.60
2023-01-22T18:46:58.782Z,14.60
2023-01-22T18:49:30.243Z,14.60
2023-01-22T18:52:03.122Z,14.60
2023-01-22T18:54:34.640Z,14.60
2023-01-22T18:57:05.418Z,14.60
2023-01-22T18:59:36.172Z,14.60
2023-01-22T19:02:06.874Z,14.60
2023-01-22T19:04:37.139Z,14.60
2023-01-22T19:07:07.784Z,14.60
2023-01-22T19:09:38.192Z,14.60
2023-01-22T19:12:09.646Z,14.60
2023-01-22T19:14:39.886Z,14.60
2023-01-22T19:17:10.701Z,14.60
2023-01-22T19:19:41.315Z,14.70
2023-01-22T19:22:11.799Z,14.70
2023-01-22T19:24:42.140Z,14.70
2023-01-22T19:27:14.145Z,14.70
2023-01-22T19:29:44.898Z,14.70
2023-01-22T19:32:18.333Z,14.70
2023-01-22T19:34:48.615Z,14.70
2023-01-22T19:37:19.507Z,14.70
2023-01-22T19:39:50.810Z,14.70
2023-01-22T19:42:21.753Z,14.70
2023-01-22T19:44:52.423Z,14.70
2023-01-22T19:47:22.967Z,14.70
2023-01-22T19:49:53.943Z,14.80
2023-01-22T19:52:24.444Z,14.80
2023-01-22T19:54:54.803Z,14.80
2023-01-22T19:57:25.742Z,14.80
2023-01-22T19:59:58.947Z,14.90
2023-01-22T20:02:29.715Z,14.90
2023-01-22T20:04:59.935Z,14.90
2023-01-22T20:07:30.460Z,15.00
2023-01-22T20:10:01.188Z,15.00
2023-01-22T20:12:32.913Z,15.10
2023-01-22T20:15:03.215Z,15.10
2023-01-22T20:17:34.944Z,15.20
2023-01-22T20:20:08.242Z,15.20
2023-01-22T20:22:38.533Z,15.20
2023-01-22T20:25:11.143Z,15.30
2023-01-22T20:27:43.900Z,15.30
2023-01-22T20:30:15.195Z,15.40
2023-01-22T20:32:46.264Z,15.40
2023-01-22T20:35:18.637Z,15.40
2023-01-22T20:37:49.946Z,15.50
2023-01-22T20:40:20.543Z,15.60
2023-01-22T20:42:52.961Z,15.60
2023-01-22T20:45:23.256Z,15.70
2023-01-22T20:47:54.676Z,15.70
2023-01-22T20:50:25.548Z,15.70
2023-01-22T20:52:59.779Z,15.80
2023-01-22T20:55:30.966Z,15.80
2023-01-22T20:58:01.716Z,15.90
2023-01-22T21:00:33.628Z,15.90
2023-01-22T21:03:04.542Z,15.90
2023-01-22T21:05:35.151Z,16.00
2023-01-22T21:08:05.660Z,16.10
2023-01-22T21:10:36.418Z,16.10
2023-01-22T21:13:07.716Z,16.20
2023-01-22T21:15:39.103Z,16.30
2023-01-22T21:18:09.415Z,16.40
2023-01-22T21:20:40.521Z,16.50
2023-01-22T21:23:11.269Z,16.50
2023-01-22T21:25:41.569Z,16.60
2023-01-22T21:28:13.014Z,16.70
2023-01-22T21:30:45.224Z,16.70
2023-01-22T21:33:18.734Z,16.80
2023-01-22T21:35:53.560Z,16.80
2023-01-22T21:38:27.319Z,16.90
2023-01-22T21:41:09.819Z,17.00
2023-01-22T21:43:58.510Z,17.10
2023-01-22T21:46:30.101Z,17.20
2023-01-22T21:49:18.472Z,17.30
2023-01-22T21:51:55.614Z,17.40
2023-01-22T21:54:32.695Z,17.60
2023-01-22T21:57:03.956Z,17.80
2023-01-22T21:59:35.561Z,18.00
2023-01-22T22:02:08.544Z,18.20
2023-01-22T22:04:39.500Z,18.40
2023-01-22T22:07:11.189Z,18.60
2023-01-22T22:09:42.046Z,18.80
2023-01-22T22:12:13.229Z,18.80
2023-01-22T22:14:44.020Z,18.80
2023-01-22T22:17:14.260Z,18.70
2023-01-22T22:19:44.548Z,18.70
2023-01-22T22:22:14.799Z,18.60
2023-01-22T22:24:45.166Z,18.50
2023-01-22T22:27:15.376Z,18.60
2023-01-22T22:29:45.659Z,18.60
2023-01-22T22:32:16.004Z,18.60
2023-01-22T22:34:46.471Z,18.60
2023-01-22T22:37:16.991Z,18.60
2023-01-22T22:39:47.853Z,18.60
2023-01-22T22:42:18.198Z,18.60
2023-01-22T22:44:48.961Z,18.60
2023-01-22T22:47:19.595Z,18.60
2023-01-22T22:49:51.230Z,18.60
2023-01-22T22:52:23.295Z,18.60
2023-01-22T22:54:53.643Z,19.00
2023-01-22T22:57:24.439Z,19.20
2023-01-22T22:59:55.286Z,19.40
2023-01-22T23:02:25.791Z,19.40
2023-01-22T23:04:56.244Z,19.30
2023-01-22T23:07:26.532Z,19.20
2023-01-22T23:09:57.446Z,19.20
2023-01-22T23:12:28.125Z,19.30
2023-01-22T23:14:58.963Z,19.20
2023-01-22T23:17:29.614Z,19.20
2023-01-22T23:20:00.124Z,19.20
2023-01-22T23:22:31.825Z,19.20
2023-01-22T23:25:02.540Z,19.00
2023-01-22T23:27:34.363Z,19.00
2023-01-22T23:30:04.912Z,19.10
2023-01-22T23:32:35.139Z,19.20
2023-01-22T23:35:05.751Z,19.40
2023-01-22T23:37:36.175Z,19.60
2023-01-22T23:40:08.010Z,19.80
2023-01-22T23:42:38.761Z,20.10
2023-01-22T23:45:11.897Z,20.20
2023-01-22T23:47:42.739Z,20.20
2023-01-22T23:50:14.803Z,20.10
2023-01-22T23:52:45.642Z,20.10
2023-01-22T23:55:17.137Z,20.10
2023-01-22T23:57:47.559Z,20.30
